Time;durP1;ratioP1;P1;durP2;ratioP2;P2;SDS_P1;SDS_P2;PMS_P1;PMS_P2;Temp;Humidity;BMP_temperature;BMP_pressure;BME280_temperature;BME280_humidity;BME280_pressure;Samples;Min_cycle;Max_cycle;Signal;HPM_P1;HPM_P2
2023/04/25 00:00:57;;;;;;;9.23;8.53;;;8.30;99.90;;;;;;5059479;28;20194;-78
2023/04/25 00:03:24;;;;;;;10.47;9.57;;;8.30;99.90;;;;;;5051275;28;20207;-77
2023/04/25 00:05:52;;;;;;;9.37;8.67;;;8.30;99.90;;;;;;5077403;28;20253;-77
2023/04/25 00:08:19;;;;;;;8.80;8.20;;;8.30;99.90;;;;;;5059492;28;20198;-77
2023/04/25 00:10:46;;;;;;;9.40;8.60;;;8.20;99.90;;;;;;5078220;28;20650;-77
2023/04/25 00:13:14;;;;;;;9.60;8.80;;;8.20;99.90;;;;;;5059100;28;20221;-77
2023/04/25 00:15:42;;;;;;;9.77;8.87;;;8.20;99.90;;;;;;5058585;28;20255;-77
2023/04/25 00:18:08;;;;;;;9.53;8.77;;;8.20;99.90;;;;;;5077194;28;20191;-76
2023/04/25 00:20:36;;;;;;;9.33;8.53;;;8.30;99.90;;;;;;5059437;28;20259;-77
2023/04/25 00:23:03;;;;;;;9.63;8.87;;;8.30;99.90;;;;;;5080287;28;20194;-77
2023/04/25 00:25:30;;;;;;;9.03;8.33;;;8.30;99.90;;;;;;5076840;28;20215;-77
2023/04/25 00:27:57;;;;;;;9.90;9.10;;;8.30;99.90;;;;;;5058852;28;20198;-77
2023/04/25 00:30:25;;;;;;;9.53;8.77;;;8.30;99.90;;;;;;5054147;28;20248;-76
2023/04/25 00:32:52;;;;;;;9.70;9.00;;;8.40;99.90;;;;;;5059368;28;20194;-77
2023/04/25 00:35:18;;;;;;;8.83;8.23;;;8.40;99.90;;;;;;5076723;28;20194;-77
2023/04/25 00:37:45;;;;;;;9.43;8.73;;;8.40;99.90;;;;;;5076387;28;20275;-76
2023/04/25 00:40:12;;;;;;;9.50;8.57;;;8.40;99.90;;;;;;5076275;28;20677;-77
2023/04/25 00:42:41;;;;;;;9.37;8.57;;;8.50;99.90;;;;;;5058435;28;20258;-77
2023/04/25 00:45:10;;;;;;;10.10;9.20;;;8.50;99.90;;;;;;5076435;28;20244;-77
2023/04/25 00:47:38;;;;;;;10.20;9.50;;;8.50;99.90;;;;;;5058077;28;20222;-77
2023/04/25 00:50:07;;;;;;;9.50;8.70;;;8.50;99.90;;;;;;5076411;28;20603;-77
2023/04/25 00:52:33;;;;;;;9.87;9.07;;;8.50;99.90;;;;;;5057884;28;20443;-77
2023/04/25 00:55:00;;;;;;;9.20;8.50;;;8.50;99.90;;;;;;5058162;28;20195;-76
2023/04/25 00:57:28;;;;;;;10.83;9.70;;;8.50;99.90;;;;;;5057974;28;20309;-77
2023/04/25 00:59:55;;;;;;;10.50;9.67;;;8.50;99.90;;;;;;5058396;28;20225;-76
2023/04/25 01:02:22;;;;;;;9.67;8.97;;;8.50;99.90;;;;;;5058028;28;20821;-77
2023/04/25 01:04:50;;;;;;;10.00;9.30;;;8.50;99.90;;;;;;5057889;28;20721;-77
2023/04/25 01:07:17;;;;;;;10.30;9.40;;;8.50;99.90;;;;;;5058171;28;20223;-78
2023/04/25 01:09:44;;;;;;;9.87;9.10;;;8.50;99.90;;;;;;5058020;28;20229;-77
2023/04/25 01:12:12;;;;;;;9.60;8.90;;;8.50;99.90;;;;;;5058045;28;20198;-77
2023/04/25 01:14:39;;;;;;;9.07;8.37;;;8.50;99.90;;;;;;5072518;28;20199;-78
2023/04/25 01:17:07;;;;;;;9.87;9.07;;;8.50;99.90;;;;;;5054802;28;20611;-77
2023/04/25 01:19:35;;;;;;;10.33;9.53;;;8.50;99.90;;;;;;5076336;28;20202;-77
2023/04/25 01:22:04;;;;;;;9.40;8.80;;;8.50;99.90;;;;;;5079734;28;20273;-77
2023/04/25 01:24:32;;;;;;;9.33;8.70;;;8.50;99.90;;;;;;5057176;28;20198;-78
2023/04/25 01:27:01;;;;;;;9.80;9.00;;;8.40;99.90;;;;;;5057248;28;20225;-77
2023/04/25 01:29:29;;;;;;;9.30;8.63;;;8.40;99.90;;;;;;5057716;28;20688;-77
2023/04/25 01:31:58;;;;;;;9.00;8.20;;;8.50;99.90;;;;;;5057375;28;20198;-77
2023/04/25 01:34:25;;;;;;;9.30;8.60;;;8.40;99.90;;;;;;5056485;28;20208;-77
2023/04/25 01:36:52;;;;;;;9.60;8.90;;;8.50;99.90;;;;;;5057008;28;20229;-79
2023/04/25 01:39:21;;;;;;;9.70;9.00;;;8.40;99.90;;;;;;5058100;28;20287;-77
2023/04/25 01:41:48;;;;;;;9.43;8.73;;;8.50;99.90;;;;;;5075926;28;20613;-76
2023/04/25 01:44:16;;;;;;;9.60;8.90;;;8.40;99.90;;;;;;5074601;28;20201;-77
2023/04/25 01:46:43;;;;;;;9.77;8.97;;;8.40;99.90;;;;;;5057359;28;20716;-77
2023/04/25 01:49:11;;;;;;;9.53;8.73;;;8.40;99.90;;;;;;5057157;28;20618;-77
2023/04/25 01:51:39;;;;;;;9.30;8.67;;;8.40;99.90;;;;;;5057677;28;20282;-76
2023/04/25 01:54:07;;;;;;;10.10;9.20;;;8.40;99.90;;;;;;5061191;28;20198;-77
2023/04/25 01:56:38;;;;;;;10.23;9.37;;;8.40;99.90;;;;;;5056190;28;20221;-76
2023/04/25 01:59:07;;;;;;;10.57;9.67;;;8.50;99.90;;;;;;5054319;28;20198;-76
2023/04/25 02:01:37;;;;;;;9.40;8.70;;;8.50;99.90;;;;;;5074811;28;20556;-77
2023/04/25 02:04:21;;;;;;;9.17;8.47;;;8.50;99.90;;;;;;5062722;28;20194;-77
2023/04/25 02:06:48;;;;;;;9.23;8.40;;;8.50;99.90;;;;;;5056606;28;20229;-77
2023/04/25 02:09:15;;;;;;;9.70;8.90;;;8.50;99.90;;;;;;5057089;28;20576;-77
2023/04/25 02:11:48;;;;;;;9.80;9.10;;;8.50;99.90;;;;;;5057602;28;20195;-77
2023/04/25 02:14:26;;;;;;;9.90;9.10;;;8.50;99.90;;;;;;5055612;28;20203;-76
2023/04/25 02:17:00;;;;;;;10.00;9.20;;;8.50;99.90;;;;;;5052235;28;20237;-77
2023/04/25 02:19:26;;;;;;;9.57;8.90;;;8.50;99.90;;;;;;5056595;28;20197;-77
2023/04/25 02:21:53;;;;;;;9.63;8.87;;;8.50;99.90;;;;;;5077869;28;20687;-77
2023/04/25 02:24:20;;;;;;;10.10;9.30;;;8.50;99.90;;;;;;5076449;28;20281;-77
2023/04/25 02:26:49;;;;;;;10.43;9.63;;;8.40;99.90;;;;;;5057204;28;20646;-78
2023/04/25 02:29:16;;;;;;;9.87;9.17;;;8.40;99.90;;;;;;5057422;28;20212;-77
2023/04/25 02:31:43;;;;;;;10.53;9.73;;;8.40;99.90;;;;;;5056367;28;20255;-77
2023/04/25 02:34:10;;;;;;;10.17;9.43;;;8.40;99.90;;;;;;5056533;28;20202;-78
2023/04/25 02:36:38;;;;;;;10.30;9.57;;;8.40;99.90;;;;;;5057882;28;20599;-77
2023/04/25 02:39:05;;;;;;;9.57;8.90;;;8.30;99.90;;;;;;5057484;28;20198;-76
2023/04/25 02:41:32;;;;;;;9.60;8.90;;;8.30;99.90;;;;;;5056586;28;20286;-78
2023/04/25 02:44:00;;;;;;;9.90;8.87;;;8.30;99.90;;;;;;5059946;28;20191;-77
2023/04/25 02:46:27;;;;;;;9.40;8.70;;;8.30;99.90;;;;;;5082062;28;20258;-77
2023/04/25 02:48:53;;;;;;;9.40;8.80;;;8.20;99.90;;;;;;5043240;28;20264;-77
2023/04/25 02:51:20;;;;;;;9.20;8.37;;;8.20;99.90;;;;;;5038101;28;20195;-77
2023/04/25 02:53:47;;;;;;;9.43;8.63;;;8.20;99.90;;;;;;5071563;28;20221;-78
2023/04/25 02:56:14;;;;;;;9.63;8.97;;;8.20;99.90;;;;;;5073614;28;20217;-78
2023/04/25 02:58:41;;;;;;;9.60;8.90;;;8.10;99.90;;;;;;5050727;28;20195;-77
2023/04/25 03:01:09;;;;;;;9.33;8.73;;;8.10;99.90;;;;;;5070274;28;20214;-77
2023/04/25 03:03:36;;;;;;;9.40;8.70;;;8.10;99.90;;;;;;5053286;28;20206;-77
2023/04/25 03:06:02;;;;;;;9.20;8.60;;;8.10;99.90;;;;;;5053892;28;20218;-77
2023/04/25 03:08:34;;;;;;;9.27;8.50;;;8.00;99.90;;;;;;5053776;28;20247;-77
2023/04/25 03:11:02;;;;;;;9.80;9.00;;;8.00;99.90;;;;;;5053801;28;20581;-78
2023/04/25 03:13:29;;;;;;;10.93;9.90;;;8.00;99.90;;;;;;5048643;28;20198;-78
2023/04/25 03:15:57;;;;;;;10.37;9.53;;;8.00;99.90;;;;;;5053926;28;20210;-78
2023/04/25 03:18:26;;;;;;;10.17;9.37;;;7.90;99.90;;;;;;5057366;28;20210;-78
2023/04/25 03:20:55;;;;;;;10.13;9.50;;;7.90;99.90;;;;;;5049967;28;20636;-77
2023/04/25 03:23:21;;;;;;;10.07;9.27;;;7.80;99.90;;;;;;5077680;28;20187;-77
2023/04/25 03:25:48;;;;;;;9.57;8.77;;;7.80;99.90;;;;;;5060173;28;20609;-78
2023/04/25 03:28:15;;;;;;;9.53;8.93;;;7.80;99.90;;;;;;5060029;28;20241;-77
2023/04/25 03:30:42;;;;;;;9.20;8.60;;;7.80;99.90;;;;;;5059773;28;20248;-77
2023/04/25 03:33:10;;;;;;;9.20;8.50;;;7.70;99.90;;;;;;5058360;28;20197;-79
2023/04/25 03:35:38;;;;;;;8.83;8.23;;;7.80;99.90;;;;;;5070290;28;20568;-78
2023/04/25 03:38:05;;;;;;;9.40;8.50;;;7.80;99.90;;;;;;5065803;28;20202;-80
2023/04/25 03:40:36;;;;;;;8.77;8.17;;;7.80;99.90;;;;;;5070861;28;20630;-81
2023/04/25 03:43:12;;;;;;;8.97;8.20;;;7.90;99.90;;;;;;5071554;28;20229;-79
2023/04/25 03:45:42;;;;;;;9.00;8.30;;;7.90;99.90;;;;;;5052753;28;20202;-78
2023/04/25 03:48:09;;;;;;;8.80;8.20;;;7.90;99.90;;;;;;5077099;28;20248;-78
2023/04/25 03:50:37;;;;;;;9.90;9.00;;;7.90;99.90;;;;;;5075612;28;20409;-77
2023/04/25 03:53:05;;;;;;;9.63;8.93;;;7.90;99.90;;;;;;5057438;28;20205;-77
2023/04/25 03:55:52;;;;;;;9.60;8.97;;;7.90;99.90;;;;;;5065881;28;20253;-78
2023/04/25 03:58:19;;;;;;;9.30;8.50;;;7.90;99.90;;;;;;5055975;28;20195;-78
2023/04/25 04:00:47;;;;;;;9.80;9.10;;;7.90;99.90;;;;;;5056079;28;20198;-77
2023/04/25 04:03:14;;;;;;;9.87;9.10;;;7.90;99.90;;;;;;5055657;28;20198;-77
2023/04/25 04:05:42;;;;;;;9.97;9.27;;;7.90;99.90;;;;;;5057059;28;20270;-78
2023/04/25 04:08:09;;;;;;;9.97;9.07;;;7.90;99.90;;;;;;5055751;28;20680;-78
2023/04/25 04:10:38;;;;;;;10.23;9.37;;;7.80;99.90;;;;;;5064403;28;20252;-78
2023/04/25 04:13:05;;;;;;;9.73;8.93;;;7.90;99.90;;;;;;5055559;28;20214;-78
2023/04/25 04:15:33;;;;;;;10.10;9.30;;;7.80;99.90;;;;;;5047674;28;20280;-78
2023/04/25 04:18:02;;;;;;;9.57;8.87;;;7.80;99.90;;;;;;5055360;28;20442;-77
2023/04/25 04:20:30;;;;;;;10.43;9.63;;;7.80;99.90;;;;;;5055414;28;20201;-78
2023/04/25 04:22:58;;;;;;;10.70;9.80;;;7.80;99.90;;;;;;5055362;28;20195;-78
2023/04/25 04:25:26;;;;;;;9.70;8.90;;;7.80;99.90;;;;;;5055222;28;20273;-78
2023/04/25 04:28:05;;;;;;;11.23;10.37;;;7.80;99.90;;;;;;5072671;28;20732;-77
2023/04/25 04:30:52;;;;;;;11.20;10.27;;;7.70;99.90;;;;;;5049215;28;20194;-79
2023/04/25 04:33:19;;;;;;;11.57;10.67;;;7.70;99.90;;;;;;5054986;28;20553;-78
2023/04/25 04:35:48;;;;;;;11.50;10.70;;;7.70;99.90;;;;;;5055050;28;20247;-78
2023/04/25 04:38:18;;;;;;;11.23;10.53;;;7.80;99.90;;;;;;5056238;28;20324;-78
2023/04/25 04:40:46;;;;;;;11.47;10.60;;;7.80;99.90;;;;;;5055740;28;20267;-78
2023/04/25 04:43:24;;;;;;;10.70;9.83;;;7.80;99.90;;;;;;5053318;28;20205;-78
2023/04/25 04:45:55;;;;;;;11.03;10.33;;;7.80;99.90;;;;;;5061226;28;20236;-78
2023/04/25 04:48:40;;;;;;;10.97;10.17;;;7.90;99.90;;;;;;5055224;28;20202;-79
2023/04/25 04:51:20;;;;;;;10.93;10.23;;;7.90;99.90;;;;;;5054658;28;20674;-78
2023/04/25 04:54:07;;;;;;;11.80;10.60;;;7.90;99.90;;;;;;5073330;28;20205;-78
2023/04/25 04:57:01;;;;;;;11.13;10.40;;;7.90;99.90;;;;;;5055348;28;20614;-78
2023/04/25 04:59:47;;;;;;;11.23;10.43;;;7.90;99.90;;;;;;5072931;28;20328;-78
2023/04/25 05:02:33;;;;;;;11.57;10.60;;;8.00;99.90;;;;;;5063648;28;20635;-78
2023/04/25 05:05:30;;;;;;;11.00;10.30;;;7.90;99.90;;;;;;5013445;28;20441;-77
2023/04/25 05:08:30;;;;;;;10.97;10.10;;;7.90;99.90;;;;;;5057945;28;20260;-77
2023/04/25 05:11:17;;;;;;;12.13;11.10;;;8.00;99.90;;;;;;5075920;28;20205;-76
2023/04/25 05:14:05;;;;;;;11.30;10.33;;;8.20;99.90;;;;;;5050971;28;20204;-77
2023/04/25 05:16:49;;;;;;;10.80;10.10;;;8.20;99.90;;;;;;5058572;28;20301;-77
2023/04/25 05:19:33;;;;;;;10.43;9.53;;;8.20;99.90;;;;;;5055589;28;20769;-77
2023/04/25 05:22:18;;;;;;;10.60;9.80;;;8.20;99.90;;;;;;5084577;28;20200;-77
2023/04/25 05:25:00;;;;;;;11.00;10.00;;;8.20;99.90;;;;;;5070578;28;20182;-76
2023/04/25 05:27:56;;;;;;;10.60;9.60;;;8.20;99.90;;;;;;5069968;28;20644;-77
2023/04/25 05:30:41;;;;;;;10.43;9.73;;;8.20;99.90;;;;;;5057794;28;20606;-77
2023/04/25 05:33:17;;;;;;;8.90;8.30;;;8.20;99.90;;;;;;5057567;28;20198;-76
2023/04/25 05:35:45;;;;;;;9.47;8.67;;;8.30;99.90;;;;;;5049859;28;20197;-78
2023/04/25 05:38:12;;;;;;;7.63;7.03;;;8.40;99.90;;;;;;5058128;28;20209;-77
2023/04/25 05:41:05;;;;;;;8.47;7.77;;;8.40;99.90;;;;;;5072567;28;20272;-76
2023/04/25 05:43:50;;;;;;;7.93;7.23;;;8.40;99.90;;;;;;5048468;28;20289;-78
2023/04/25 05:46:32;;;;;;;6.50;5.93;;;8.60;99.90;;;;;;5071967;28;20254;-78
2023/04/25 05:49:23;;;;;;;5.93;5.43;;;8.70;99.90;;;;;;5055025;28;20210;-79
2023/04/25 05:52:16;;;;;;;5.63;5.03;;;8.90;99.90;;;;;;5039853;28;20271;-81
2023/04/25 05:55:11;;;;;;;6.20;5.80;;;9.20;99.90;;;;;;5081633;28;20213;-79
2023/04/25 05:57:41;;;;;;;6.70;4.90;;;9.30;99.90;;;;;;5059591;28;20267;-76
2023/04/25 06:00:11;;;;;;;6.10;4.67;;;9.40;99.90;;;;;;5056683;28;20198;-77
2023/04/25 06:02:41;;;;;;;4.77;3.90;;;9.50;99.90;;;;;;5048315;28;20191;-79
2023/04/25 06:05:10;;;;;;;6.77;5.10;;;9.70;99.90;;;;;;5056843;28;20319;-77
2023/04/25 06:07:36;;;;;;;5.00;4.00;;;9.90;99.90;;;;;;5056647;28;20222;-76
2023/04/25 06:10:06;;;;;;;6.20;3.73;;;10.10;99.90;;;;;;5056967;28;20199;-77
2023/04/25 06:12:33;;;;;;;4.80;4.03;;;10.40;99.90;;;;;;5075833;28;20225;-78
2023/04/25 06:15:00;;;;;;;6.60;4.00;;;10.50;99.90;;;;;;5050116;28;20206;-78
2023/04/25 06:17:28;;;;;;;4.07;3.67;;;10.60;99.90;;;;;;5058675;28;20231;-77
2023/04/25 06:19:55;;;;;;;5.27;4.10;;;10.70;99.90;;;;;;5049852;28;20231;-77
2023/04/25 06:22:21;;;;;;;4.10;3.70;;;10.60;99.90;;;;;;5057425;28;20287;-77
2023/04/25 06:24:48;;;;;;;6.23;3.90;;;10.50;99.90;;;;;;5058351;28;20204;-77
2023/04/25 06:27:15;;;;;;;6.10;3.63;;;10.40;99.90;;;;;;5057596;28;20231;-77
2023/04/25 06:29:42;;;;;;;8.77;3.70;;;10.40;99.90;;;;;;5054251;28;20191;-79
2023/04/25 06:32:09;;;;;;;4.70;4.20;;;10.30;99.90;;;;;;5053746;28;20703;-79
2023/04/25 06:34:37;;;;;;;6.20;4.60;;;10.20;99.90;;;;;;5053231;28;20200;-79
2023/04/25 06:37:06;;;;;;;4.60;4.30;;;10.10;99.90;;;;;;5053556;28;20227;-80
2023/04/25 06:39:32;;;;;;;5.07;3.80;;;10.10;99.90;;;;;;5065001;28;20204;-80
2023/04/25 06:41:59;;;;;;;5.53;3.83;;;10.00;99.90;;;;;;5058597;28;20199;-79
2023/04/25 06:44:56;;;;;;;6.10;4.33;;;9.90;99.90;;;;;;5016459;28;20209;-81
2023/04/25 06:47:23;;;;;;;7.03;3.70;;;9.90;99.90;;;;;;5041685;28;20219;-76
2023/04/25 06:49:51;;;;;;;4.47;4.07;;;9.80;99.90;;;;;;5059836;28;20214;-76
2023/04/25 06:52:18;;;;;;;5.13;4.67;;;9.80;99.90;;;;;;5063262;28;20712;-76
2023/04/25 06:54:46;;;;;;;6.60;6.10;;;9.70;99.90;;;;;;5052573;28;20283;-76
2023/04/25 06:57:24;;;;;;;7.30;6.70;;;9.70;99.90;;;;;;5045989;28;20599;-79
2023/04/25 06:59:51;;;;;;;7.10;6.50;;;9.70;99.90;;;;;;5049955;28;20192;-77
2023/04/25 07:02:18;;;;;;;7.07;6.57;;;9.70;99.90;;;;;;5051959;28;20249;-77
2023/04/25 07:04:46;;;;;;;7.10;6.50;;;9.60;99.90;;;;;;5044517;28;20592;-76
2023/04/25 07:07:14;;;;;;;6.77;6.17;;;9.60;99.90;;;;;;5060690;28;20222;-77
2023/04/25 07:09:49;;;;;;;7.50;6.80;;;9.60;99.90;;;;;;5050235;28;20666;-78
2023/04/25 07:12:16;;;;;;;8.47;7.77;;;9.70;99.90;;;;;;5052007;28;20225;-77
2023/04/25 07:14:45;;;;;;;8.33;7.57;;;9.70;99.90;;;;;;5043641;28;20254;-76
2023/04/25 07:17:12;;;;;;;6.37;5.90;;;9.70;99.90;;;;;;5044774;28;20211;-78
2023/04/25 07:19:40;;;;;;;5.20;4.70;;;9.70;99.90;;;;;;5046519;28;20195;-79
2023/04/25 07:22:08;;;;;;;5.20;4.70;;;9.70;99.90;;;;;;5043454;28;20263;-78
2023/04/25 07:24:39;;;;;;;5.40;5.00;;;9.70;99.90;;;;;;5045295;28;20203;-79
2023/04/25 07:27:06;;;;;;;5.20;4.90;;;9.70;99.90;;;;;;5048032;28;20216;-79
2023/04/25 07:29:43;;;;;;;5.60;5.07;;;9.70;99.90;;;;;;5043459;28;20207;-79
2023/04/25 07:32:11;;;;;;;5.60;5.10;;;9.70;99.90;;;;;;5056328;28;20282;-77
2023/04/25 07:34:38;;;;;;;5.33;4.83;;;9.70;99.90;;;;;;5065473;28;20280;-79
2023/04/25 07:37:06;;;;;;;5.00;4.53;;;9.70;99.90;;;;;;5045061;28;20228;-78
2023/04/25 07:39:42;;;;;;;4.73;4.33;;;9.70;99.90;;;;;;5052781;28;20211;-80
2023/04/25 07:42:09;;;;;;;4.77;4.33;;;9.70;99.90;;;;;;5046449;28;20667;-81
2023/04/25 07:44:38;;;;;;;4.90;4.50;;;9.80;99.90;;;;;;5043078;28;20196;-80
2023/04/25 07:47:07;;;;;;;4.77;4.37;;;9.90;99.90;;;;;;5045126;28;20246;-82
2023/04/25 07:49:35;;;;;;;6.33;5.03;;;9.80;99.90;;;;;;5045773;28;20195;-79
2023/04/25 07:52:02;;;;;;;4.97;4.57;;;9.80;99.90;;;;;;5057172;28;20191;-77
2023/04/25 07:54:29;;;;;;;5.23;4.80;;;9.90;99.90;;;;;;5047366;28;20254;-76
2023/04/25 07:57:03;;;;;;;5.37;4.87;;;9.90;99.90;;;;;;5053318;28;20215;-78
2023/04/25 07:59:31;;;;;;;5.17;4.80;;;9.80;99.90;;;;;;5062352;28;20210;-77
2023/04/25 08:02:02;;;;;;;5.13;4.73;;;9.70;99.90;;;;;;5063605;28;20195;-78
2023/04/25 08:04:29;;;;;;;4.70;4.40;;;9.70;99.90;;;;;;5062361;28;20203;-77
2023/04/25 08:07:02;;;;;;;5.40;5.00;;;9.70;99.90;;;;;;5081879;28;20590;-77
2023/04/25 08:09:35;;;;;;;6.80;6.20;;;9.60;99.90;;;;;;5070802;28;20198;-78
2023/04/25 08:12:04;;;;;;;8.33;7.63;;;9.50;99.90;;;;;;5051512;28;20226;-76
2023/04/25 08:14:35;;;;;;;9.03;8.33;;;9.40;99.90;;;;;;5058728;28;20223;-76
2023/04/25 08:17:04;;;;;;;8.90;8.30;;;9.20;99.90;;;;;;5060960;28;20298;-77
2023/04/25 08:19:33;;;;;;;9.60;8.90;;;9.20;99.90;;;;;;5061988;28;20197;-77
2023/04/25 08:21:59;;;;;;;9.90;9.23;;;9.10;99.90;;;;;;5061536;28;20195;-77
2023/04/25 08:24:35;;;;;;;9.87;9.17;;;9.10;99.90;;;;;;5061582;28;20209;-77
2023/04/25 08:27:04;;;;;;;9.40;8.70;;;9.10;99.90;;;;;;5065803;28;20281;-77
2023/04/25 08:29:31;;;;;;;10.80;9.80;;;9.00;99.90;;;;;;5075509;28;20597;-77
2023/04/25 08:31:58;;;;;;;10.47;9.70;;;9.00;99.90;;;;;;5051165;28;20671;-76
2023/04/25 08:34:26;;;;;;;11.13;10.37;;;8.90;99.90;;;;;;5051188;28;20224;-76
2023/04/25 08:36:53;;;;;;;10.00;9.30;;;8.80;99.90;;;;;;5082524;28;20219;-78
2023/04/25 08:39:27;;;;;;;9.90;9.20;;;8.70;99.90;;;;;;5057733;28;20194;-76
2023/04/25 08:42:27;;;;;;;10.30;9.60;;;8.70;99.90;;;;;;5035067;28;20309;-80
2023/04/25 08:44:55;;;;;;;9.57;8.97;;;8.60;99.90;;;;;;5051256;28;20202;-77
2023/04/25 08:47:26;;;;;;;9.67;8.97;;;8.60;99.90;;;;;;5048819;28;20230;-79
2023/04/25 08:49:58;;;;;;;9.90;9.30;;;8.50;99.90;;;;;;5053312;28;20232;-80
2023/04/25 08:52:30;;;;;;;10.07;9.37;;;8.50;99.90;;;;;;5041912;28;20233;-80
2023/04/25 08:54:58;;;;;;;9.60;9.00;;;8.50;99.90;;;;;;5049313;28;20202;-77
2023/04/25 08:57:30;;;;;;;10.43;9.63;;;8.50;99.90;;;;;;5054777;28;20236;-77
2023/04/25 09:14:07;;;;;;;10.50;9.70;;;8.60;99.90;;;;;;5068797;28;20282;-77
2023/04/25 09:17:01;;;;;;;11.37;10.57;;;8.70;99.90;;;;;;5065054;28;20222;-77
2023/04/25 09:19:40;;;;;;;11.23;10.37;;;8.80;99.90;;;;;;5071838;28;20296;-78
2023/04/25 09:22:13;;;;;;;5.83;4.80;;;8.90;99.90;;;;;;5062752;28;20205;-78
2023/04/25 09:24:43;;;;;;;4.87;4.33;;;9.00;99.90;;;;;;5059596;28;20198;-78
2023/04/25 09:27:12;;;;;;;11.70;10.70;;;9.10;99.90;;;;;;5071534;28;20222;-78
2023/04/25 09:29:41;;;;;;;10.77;9.97;;;9.00;99.90;;;;;;5059903;28;20217;-77
2023/04/25 09:32:19;;;;;;;5.43;3.87;;;8.90;99.90;;;;;;5058477;28;20476;-78
2023/04/25 09:34:49;;;;;;;10.20;9.50;;;8.80;99.90;;;;;;5084724;28;20252;-77
2023/04/25 09:37:22;;;;;;;10.53;9.73;;;8.80;99.90;;;;;;5057870;28;20222;-77
2023/04/25 09:40:10;;;;;;;10.73;9.83;;;8.70;99.90;;;;;;5082760;28;20285;-77
2023/04/25 09:42:50;;;;;;;10.40;9.70;;;8.80;99.90;;;;;;5068976;28;20202;-79
2023/04/25 09:45:17;;;;;;;4.00;3.70;;;8.80;99.90;;;;;;5055240;28;20194;-77
2023/04/25 09:47:46;;;;;;;5.10;3.83;;;8.90;99.90;;;;;;5069305;28;20241;-77
2023/04/25 09:50:24;;;;;;;10.00;9.40;;;8.90;99.90;;;;;;5045593;28;20688;-77
2023/04/25 09:53:04;;;;;;;3.40;3.20;;;8.80;99.90;;;;;;5037132;28;20199;-77
2023/04/25 09:55:36;;;;;;;9.67;9.07;;;8.70;99.90;;;;;;5041808;28;20234;-77
2023/04/25 09:58:06;;;;;;;9.50;8.90;;;8.60;99.90;;;;;;5057300;28;20288;-77
2023/04/25 10:00:34;;;;;;;9.60;9.00;;;8.60;99.90;;;;;;5057500;28;20195;-77
2023/04/25 10:03:14;;;;;;;9.20;8.60;;;8.60;99.90;;;;;;5059899;28;20588;-77
2023/04/25 10:05:59;;;;;;;8.97;8.47;;;8.70;99.90;;;;;;5041716;28;20639;-77
2023/04/25 10:08:30;;;;;;;2.80;2.60;;;8.80;99.90;;;;;;5055515;28;20222;-78
2023/04/25 10:10:59;;;;;;;2.90;2.70;;;8.80;99.90;;;;;;5054595;28;20225;-77
2023/04/25 10:13:27;;;;;;;8.13;7.63;;;8.90;99.90;;;;;;5043735;28;20207;-78
2023/04/25 10:16:31;;;;;;;6.20;5.80;;;8.80;99.90;;;;;;5043869;28;20296;-77
2023/04/25 10:19:00;;;;;;;2.70;2.53;;;8.80;99.90;;;;;;5057613;28;20249;-83
2023/04/25 10:21:30;;;;;;;5.23;4.87;;;8.70;99.90;;;;;;5049947;28;20202;-82
2023/04/25 10:23:57;;;;;;;8.20;7.77;;;8.70;99.90;;;;;;5063981;28;20195;-83
2023/04/25 10:26:25;;;;;;;9.73;9.13;;;8.70;99.90;;;;;;5050319;28;20225;-84
2023/04/25 10:29:00;;;;;;;9.40;8.80;;;8.70;99.90;;;;;;5079452;28;20210;-81
2023/04/25 10:31:27;;;;;;;9.53;8.97;;;8.70;99.90;;;;;;5057291;28;20205;-81
2023/04/25 10:33:54;;;;;;;9.07;8.50;;;8.60;99.90;;;;;;5046597;28;20654;-84
2023/04/25 10:36:24;;;;;;;9.13;8.63;;;8.50;99.90;;;;;;5055118;28;20229;-81
2023/04/25 10:38:52;;;;;;;9.00;8.50;;;8.50;99.90;;;;;;5067879;28;20277;-81
2023/04/25 10:41:21;;;;;;;8.50;8.00;;;8.50;99.90;;;;;;5048813;28;20199;-81
2023/04/25 10:43:48;;;;;;;2.43;2.33;;;8.50;99.90;;;;;;5052441;28;20217;-81
2023/04/25 10:46:20;;;;;;;2.50;2.40;;;8.50;99.90;;;;;;5028746;28;20223;-82
2023/04/25 10:48:49;;;;;;;2.40;2.30;;;8.60;99.90;;;;;;5047074;28;20224;-83
2023/04/25 10:51:21;;;;;;;2.60;2.50;;;8.60;99.90;;;;;;5030970;28;20195;-80
2023/04/25 10:53:58;;;;;;;6.83;6.43;;;8.80;99.90;;;;;;5059367;28;20195;-79
2023/04/25 10:56:27;;;;;;;2.60;2.47;;;8.70;99.90;;;;;;5046093;28;20215;-78
2023/04/25 10:59:05;;;;;;;7.30;6.90;;;8.80;99.90;;;;;;5048660;28;20214;-79
2023/04/25 11:01:39;;;;;;;7.90;7.50;;;8.80;99.90;;;;;;5027195;28;20290;-78
2023/04/25 11:04:06;;;;;;;8.83;8.33;;;8.90;99.90;;;;;;5049340;28;20194;-79
2023/04/25 11:06:44;;;;;;;7.97;7.57;;;8.90;99.90;;;;;;5060462;28;20218;-77
2023/04/25 11:09:14;;;;;;;7.70;7.30;;;8.80;99.90;;;;;;5050223;28;20211;-77
2023/04/25 11:11:40;;;;;;;7.40;7.00;;;8.90;99.90;;;;;;5038305;28;20241;-76
2023/04/25 11:14:07;;;;;;;8.13;7.40;;;8.80;99.90;;;;;;5039111;28;20202;-77
2023/04/25 11:16:36;;;;;;;7.73;7.33;;;8.80;99.90;;;;;;5037878;28;20227;-76
2023/04/25 11:19:02;;;;;;;7.20;6.80;;;8.80;99.90;;;;;;5047684;28;20191;-78
2023/04/25 11:21:31;;;;;;;7.70;7.20;;;8.90;99.90;;;;;;5055954;28;20206;-77
2023/04/25 11:23:58;;;;;;;6.67;6.27;;;9.00;99.90;;;;;;5036456;28;20294;-77
2023/04/25 11:26:26;;;;;;;6.30;5.90;;;9.10;99.90;;;;;;5055408;28;20600;-77
2023/04/25 11:28:58;;;;;;;6.97;6.57;;;9.30;99.90;;;;;;5023002;28;20247;-77
2023/04/25 11:31:26;;;;;;;5.27;4.97;;;9.30;99.90;;;;;;5040791;28;20201;-80
2023/04/25 11:33:54;;;;;;;5.40;5.00;;;9.30;99.90;;;;;;5044350;28;20230;-77
2023/04/25 11:36:21;;;;;;;4.80;4.40;;;9.00;99.90;;;;;;5039016;28;20228;-78
2023/04/25 11:38:48;;;;;;;4.43;4.13;;;9.10;99.90;;;;;;5036014;28;20215;-77
2023/04/25 11:41:14;;;;;;;3.50;3.30;;;9.30;99.90;;;;;;5045110;28;20254;-76
2023/04/25 11:43:44;;;;;;;2.40;2.30;;;9.40;99.90;;;;;;5042884;28;20287;-76
2023/04/25 11:46:11;;;;;;;2.37;2.27;;;9.50;99.90;;;;;;5022215;28;20243;-76
2023/04/25 11:48:39;;;;;;;2.60;2.50;;;9.60;99.90;;;;;;5027783;28;20382;-77
2023/04/25 11:51:06;;;;;;;2.80;2.70;;;9.70;99.90;;;;;;5057759;28;20214;-76
2023/04/25 11:53:32;;;;;;;3.30;3.10;;;9.70;99.90;;;;;;5035480;28;20232;-76
2023/04/25 11:56:00;;;;;;;3.40;3.20;;;9.60;99.90;;;;;;5050314;28;20771;-76
2023/04/25 11:58:27;;;;;;;3.30;3.10;;;9.70;99.90;;;;;;5020549;28;20208;-76
2023/04/25 12:00:58;;;;;;;2.10;2.00;;;9.80;99.90;;;;;;5052909;28;20200;-76
2023/04/25 12:03:27;;;;;;;2.60;1.90;;;9.90;99.90;;;;;;5044221;28;20200;-76
2023/04/25 12:05:53;;;;;;;2.20;2.10;;;10.10;99.90;;;;;;5038476;28;20728;-76
2023/04/25 12:08:20;;;;;;;2.10;2.00;;;10.20;99.90;;;;;;5035995;28;20564;-76
2023/04/25 12:10:48;;;;;;;2.10;2.00;;;10.30;99.90;;;;;;5038040;28;20197;-76
2023/04/25 12:13:22;;;;;;;2.10;2.00;;;10.60;99.90;;;;;;5021514;28;20552;-75
2023/04/25 12:15:49;;;;;;;2.20;2.10;;;10.80;99.90;;;;;;5036313;28;20202;-76
2023/04/25 12:18:20;;;;;;;2.33;2.20;;;11.10;99.90;;;;;;5020788;28;20208;-76
2023/04/25 12:20:47;;;;;;;2.70;2.50;;;11.20;99.90;;;;;;5025033;28;20202;-76
2023/04/25 12:23:13;;;;;;;2.60;2.20;;;10.90;99.90;;;;;;5037438;28;20225;-76
2023/04/25 12:25:42;;;;;;;2.10;2.00;;;10.50;99.90;;;;;;5041048;28;20202;-76
2023/04/25 12:28:19;;;;;;;2.20;2.10;;;10.30;99.90;;;;;;5039172;28;20691;-79
2023/04/25 12:30:57;;;;;;;2.20;2.10;;;10.10;99.90;;;;;;5043344;28;20621;-76
2023/04/25 12:33:26;;;;;;;2.10;2.00;;;9.90;99.90;;;;;;5020336;28;20210;-77
2023/04/25 12:35:53;;;;;;;2.30;2.20;;;9.80;99.90;;;;;;5028043;28;20632;-78
2023/04/25 12:38:25;;;;;;;2.73;2.10;;;9.80;99.90;;;;;;5040841;28;20258;-78
2023/04/25 12:40:51;;;;;;;2.10;2.00;;;9.80;99.90;;;;;;5032714;28;20227;-81
2023/04/25 12:43:18;;;;;;;2.17;2.03;;;9.90;99.90;;;;;;5043014;28;20659;-80
2023/04/25 12:45:45;;;;;;;2.07;1.97;;;9.70;99.90;;;;;;5027311;28;20200;-77
2023/04/25 12:48:12;;;;;;;2.10;2.00;;;9.70;99.90;;;;;;5047333;28;20592;-78
2023/04/25 12:50:40;;;;;;;2.20;2.10;;;9.80;99.90;;;;;;5042245;28;20218;-78
2023/04/25 12:53:07;;;;;;;2.10;2.00;;;9.90;99.90;;;;;;5035074;28;20202;-77
2023/04/25 12:55:35;;;;;;;2.20;2.10;;;9.90;99.90;;;;;;5027790;28;20257;-78
2023/04/25 12:58:02;;;;;;;2.23;2.13;;;10.10;99.90;;;;;;5047152;28;20262;-77
2023/04/25 13:00:29;;;;;;;2.40;2.30;;;10.20;99.90;;;;;;5044346;28;20281;-78
2023/04/25 13:02:56;;;;;;;2.17;2.07;;;10.10;99.90;;;;;;5019319;28;20198;-77
2023/04/25 13:05:23;;;;;;;2.27;2.10;;;10.10;99.90;;;;;;5051008;28;20215;-78
2023/04/25 13:07:51;;;;;;;2.20;2.10;;;10.10;99.90;;;;;;5046534;28;20224;-78
2023/04/25 13:10:18;;;;;;;2.40;2.30;;;10.00;99.90;;;;;;5042876;28;20223;-78
2023/04/25 13:12:45;;;;;;;2.40;2.20;;;10.00;99.90;;;;;;5036890;28;20285;-78
2023/04/25 13:15:12;;;;;;;2.37;2.27;;;9.90;99.90;;;;;;5040615;28;20687;-79
2023/04/25 13:17:40;;;;;;;2.40;2.20;;;9.90;99.90;;;;;;5044576;28;20216;-78
2023/04/25 13:20:09;;;;;;;3.30;3.00;;;9.90;99.90;;;;;;5037034;28;20189;-78
2023/04/25 13:22:37;;;;;;;2.60;2.40;;;9.80;99.90;;;;;;5038709;28;20202;-78
2023/04/25 13:25:07;;;;;;;2.30;2.20;;;9.70;99.90;;;;;;5036071;28;20237;-77